Time;durP1;ratioP1;P1;durP2;ratioP2;P2;SDS_P1;SDS_P2;PMS_P1;PMS_P2;Temp;Humidity;BMP_temperature;BMP_pressure;BME280_temperature;BME280_humidity;BME280_pressure;Samples;Min_cycle;Max_cycle;Signal;HPM_P1;HPM_P2
2020/12/21 00:00:41;;;;;;;1.98;0.82;;;6.30;95.10;;;10.14;77.13;101961.81;4995092;28;96969;-74
2020/12/21 00:03:16;;;;;;;0.57;0.47;;;6.20;95.00;;;10.09;77.31;101964.50;4999058;28;97749;-73
2020/12/21 00:05:48;;;;;;;5.53;1.38;;;6.20;95.00;;;10.10;77.04;101966.94;4997529;28;97417;-73
2020/12/21 00:08:16;;;;;;;3.53;0.73;;;6.20;95.00;;;10.12;77.72;101963.97;4994153;28;97310;-73
2020/12/21 00:10:44;;;;;;;1.00;0.98;;;6.20;95.10;;;10.20;77.69;101955.38;4997852;28;96949;-73
2020/12/21 00:13:12;;;;;;;0.60;0.40;;;6.20;95.10;;;10.24;78.11;101961.84;4981632;28;97528;-73
2020/12/21 00:15:39;;;;;;;1.05;0.75;;;6.20;95.20;;;10.27;77.58;101955.94;4996286;28;96612;-73
2020/12/21 00:18:07;;;;;;;2.35;0.93;;;6.20;95.20;;;10.28;77.94;101965.56;4998904;28;96770;-73
2020/12/21 00:20:35;;;;;;;6.00;1.02;;;6.20;95.20;;;10.31;77.80;101967.72;4998900;28;96879;-74
2020/12/21 00:23:06;;;;;;;1.30;1.08;;;6.20;95.20;;;10.30;77.65;101960.75;4998277;28;97839;-73
2020/12/21 00:25:34;;;;;;;1.67;1.08;;;6.20;95.20;;;10.28;77.48;101962.91;4996514;28;97784;-73
2020/12/21 00:28:04;;;;;;;18.40;1.08;;;6.20;95.20;;;10.28;77.41;101962.91;4998187;28;97130;-74
2020/12/21 00:30:32;;;;;;;1.55;1.45;;;6.20;95.20;;;10.21;77.26;101957.00;4995615;28;96867;-74
2020/12/21 00:33:00;;;;;;;0.30;0.30;;;6.20;95.20;;;10.15;77.45;101960.75;4995886;28;97173;-75
2020/12/21 00:35:31;;;;;;;0.55;0.55;;;6.20;95.20;;;10.20;77.47;101958.06;4992981;28;96812;-73
2020/12/21 00:38:00;;;;;;;1.13;1.02;;;6.20;95.20;;;10.19;76.95;101959.13;4999768;28;96822;-74
2020/12/21 00:40:31;;;;;;;2.67;1.30;;;6.20;95.20;;;10.21;76.99;101965.84;4993037;28;96777;-74
2020/12/21 00:43:02;;;;;;;1.42;1.02;;;6.10;95.20;;;10.27;77.24;101959.41;4998107;28;96942;-74
2020/12/21 00:45:31;;;;;;;3.92;1.65;;;6.10;95.20;;;10.22;76.80;101955.94;4997269;28;96750;-74
2020/12/21 00:48:00;;;;;;;7.47;0.75;;;6.10;95.20;;;10.23;77.07;101961.00;4997838;28;96946;-74
2020/12/21 00:50:32;;;;;;;15.35;1.35;;;6.10;95.20;;;10.25;76.96;101966.91;4992033;28;97025;-74
2020/12/21 00:53:00;;;;;;;0.88;0.88;;;6.10;95.20;;;10.27;76.98;101962.06;4996638;28;97963;-74
2020/12/21 00:55:30;;;;;;;0.70;0.45;;;6.10;95.20;;;10.26;77.27;101957.00;4996798;28;97682;-75
2020/12/21 00:57:58;;;;;;;3.95;2.05;;;6.10;95.20;;;10.18;77.46;101954.84;5006533;28;96918;-74
2020/12/21 01:00:26;;;;;;;0.55;0.55;;;6.10;95.20;;;10.14;77.29;101956.47;4996609;28;96971;-74
2020/12/21 01:02:54;;;;;;;0.80;0.63;;;6.10;95.20;;;10.11;77.09;101954.31;4995705;28;97813;-74
2020/12/21 01:05:22;;;;;;;0.22;0.22;;;6.10;95.20;;;10.11;77.02;101959.69;4997740;28;97808;-73
2020/12/21 01:07:49;;;;;;;3.03;1.52;;;6.10;95.10;;;10.10;76.66;101966.09;4995213;28;96769;-74
2020/12/21 01:10:17;;;;;;;2.15;0.95;;;6.10;95.20;;;10.06;76.56;101973.91;4996632;28;96852;-74
2020/12/21 01:12:45;;;;;;;0.38;0.38;;;6.00;95.10;;;9.93;77.30;101969.03;4995817;27;96819;-74
2020/12/21 01:15:13;;;;;;;0.50;0.50;;;6.00;95.10;;;9.92;77.48;101977.34;4993763;28;96779;-74
2020/12/21 01:17:43;;;;;;;0.60;0.60;;;6.00;95.10;;;9.96;77.42;101981.09;4996649;28;97172;-73
2020/12/21 01:20:12;;;;;;;0.40;0.40;;;6.00;95.20;;;9.98;77.60;101981.63;4994982;28;97482;-73
2020/12/21 01:22:40;;;;;;;1.48;1.38;;;6.00;95.20;;;10.01;77.26;101983.78;4990007;28;97094;-73
2020/12/21 01:25:08;;;;;;;1.40;1.02;;;6.00;95.20;;;9.96;77.68;101981.09;4996141;28;98029;-73
2020/12/21 01:27:36;;;;;;;4.35;1.65;;;6.00;95.20;;;9.97;77.90;101985.38;4988613;28;96789;-73
2020/12/21 01:30:05;;;;;;;0.40;0.40;;;6.00;95.20;;;9.97;77.67;101980.78;4996492;28;96905;-73
2020/12/21 01:32:33;;;;;;;4.07;1.55;;;6.00;95.20;;;9.96;77.04;101983.75;4995356;28;97628;-73
2020/12/21 01:35:04;;;;;;;1.05;0.77;;;6.00;95.20;;;9.92;77.15;101980.00;4997092;28;96737;-73
2020/12/21 01:37:35;;;;;;;0.40;0.40;;;5.90;95.20;;;9.93;76.92;101982.41;4998488;28;96749;-73
2020/12/21 01:40:07;;;;;;;0.40;0.40;;;5.90;95.10;;;9.89;77.36;101985.88;4996408;27;96958;-73
2020/12/21 01:42:34;;;;;;;3.35;1.35;;;5.90;95.10;;;9.90;76.95;101974.09;4995121;28;96973;-73
2020/12/21 01:45:05;;;;;;;5.80;1.90;;;5.90;95.10;;;9.86;77.04;101976.50;5000031;28;97676;-73
2020/12/21 01:47:33;;;;;;;0.95;0.55;;;5.80;95.10;;;9.86;77.02;101978.38;4997147;28;96612;-73
2020/12/21 01:50:05;;;;;;;6.93;2.53;;;5.80;95.10;;;9.84;76.70;101983.19;4995659;28;97349;-73
2020/12/21 01:52:35;;;;;;;2.40;1.73;;;5.80;95.10;;;9.78;77.02;101982.41;4996246;28;96846;-73
2020/12/21 01:55:04;;;;;;;1.60;1.08;;;5.80;95.10;;;9.76;76.76;101981.88;4995131;28;96708;-73
2020/12/21 01:57:32;;;;;;;13.27;1.33;;;5.80;95.10;;;9.72;77.06;101982.66;4996352;27;96603;-73
2020/12/21 02:00:05;;;;;;;0.63;0.63;;;5.70;95.00;;;9.76;76.66;101987.22;4998727;28;96871;-73
2020/12/21 02:02:40;;;;;;;1.35;1.25;;;5.70;95.00;;;9.71;76.94;101991.75;4992355;28;96948;-73
2020/12/21 02:05:09;;;;;;;3.42;1.75;;;5.70;95.00;;;9.81;76.53;101994.44;4967279;28;100121;-73
2020/12/21 02:07:37;;;;;;;1.38;0.57;;;5.70;95.10;;;9.86;76.46;101997.94;4999411;28;96812;-73
2020/12/21 02:10:10;;;;;;;0.70;0.68;;;5.70;95.10;;;9.83;75.94;101989.63;4995814;28;96943;-73
2020/12/21 02:12:38;;;;;;;;;;;5.60;95.00;;;9.76;76.19;101997.09;4995685;28;98142;-73
2020/12/21 02:15:07;;;;;;;0.32;0.32;;;5.60;95.00;;;9.70;76.31;101995.50;4994873;28;96681;-73
2020/12/21 02:17:35;;;;;;;1.45;0.95;;;5.60;95.00;;;9.65;76.45;101987.47;4993952;28;96590;-73
2020/12/21 02:20:06;;;;;;;4.25;1.00;;;5.60;95.00;;;9.64;76.84;101977.84;5000713;28;96500;-73
2020/12/21 02:22:35;;;;;;;5.10;1.25;;;5.60;95.00;;;9.64;76.56;101988.53;5012778;28;96861;-73
2020/12/21 02:25:04;;;;;;;0.88;0.88;;;5.50;95.00;;;9.60;76.55;101990.09;5000660;28;96755;-73
2020/12/21 02:27:32;;;;;;;0.35;0.35;;;5.50;95.00;;;9.63;76.33;101981.56;4996774;28;96662;-73
2020/12/21 02:30:00;;;;;;;36.08;2.63;;;5.50;95.00;;;9.62;76.33;101993.34;4996979;28;96604;-73
2020/12/21 02:32:30;;;;;;;0.88;0.50;;;5.50;95.00;;;9.52;76.64;101991.44;4983995;28;97872;-73
2020/12/21 02:34:58;;;;;;;4.03;1.83;;;5.50;95.00;;;9.48;76.57;101986.88;5013059;28;97785;-73
2020/12/21 02:37:26;;;;;;;1.90;1.77;;;5.50;95.00;;;9.41;76.89;101989.00;5006545;28;97220;-73
2020/12/21 02:39:54;;;;;;;1.05;0.98;;;5.50;95.00;;;9.37;76.92;101985.25;4999417;28;96921;-73
2020/12/21 02:42:21;;;;;;;0.50;0.50;;;5.40;95.00;;;9.33;76.90;101984.19;4997256;28;96768;-73
2020/12/21 02:44:49;;;;;;;1.88;0.98;;;5.40;95.00;;;9.26;77.18;101982.81;5002742;28;96677;-73
2020/12/21 02:47:17;;;;;;;9.98;1.70;;;5.40;95.00;;;9.24;77.16;101993.75;4999742;28;96744;-73
2020/12/21 02:49:44;;;;;;;2.50;1.13;;;5.30;95.00;;;9.20;77.34;101995.34;4998178;28;97205;-73
2020/12/21 02:52:12;;;;;;;7.05;2.55;;;5.40;95.00;;;9.18;77.46;101997.47;4999122;28;99256;-73
2020/12/21 02:54:39;;;;;;;2.00;0.68;;;5.30;95.00;;;9.16;77.89;102001.47;5005767;28;97757;-73
2020/12/21 02:57:42;;;;;;;0.47;0.47;;;5.30;95.00;;;9.20;77.34;101999.91;5001361;28;97508;-73
2020/12/21 03:00:10;;;;;;;0.45;0.45;;;5.30;95.00;;;9.16;77.70;101991.59;5001088;28;96645;-74
2020/12/21 03:02:38;;;;;;;19.67;1.63;;;5.30;95.00;;;9.19;77.48;101990.28;4996697;28;96720;-74
2020/12/21 03:05:07;;;;;;;20.17;1.45;;;5.30;95.00;;;9.25;77.49;101981.97;5001334;28;97844;-74
2020/12/21 03:07:35;;;;;;;6.55;1.77;;;5.30;95.10;;;9.18;77.71;101981.44;4997914;28;96746;-74
2020/12/21 03:10:11;;;;;;;0.43;0.40;;;5.30;95.10;;;9.16;77.53;101991.59;5017038;28;96820;-74
2020/12/21 03:12:39;;;;;;;1.92;1.45;;;5.30;95.10;;;9.13;78.06;101997.47;5001716;28;97457;-74
2020/12/21 03:15:11;;;;;;;6.90;2.22;;;5.30;95.10;;;9.18;77.73;101989.44;4997123;28;97960;-74
2020/12/21 03:17:39;;;;;;;0.75;0.55;;;5.30;95.10;;;9.15;78.03;101989.16;5002022;28;97013;-74
2020/12/21 03:20:11;;;;;;;4.28;2.28;;;5.30;95.10;;;9.19;77.67;101991.06;4998449;28;96735;-74
2020/12/21 03:22:39;;;;;;;0.82;0.82;;;5.30;95.10;;;9.22;77.81;101990.53;5013134;28;97878;-74
2020/12/21 03:25:07;;;;;;;1.70;0.93;;;5.30;95.10;;;9.28;77.45;101986.81;4997937;28;96741;-74
2020/12/21 03:27:35;;;;;;;2.55;1.08;;;5.30;95.10;;;9.29;77.46;101977.72;5012673;28;96767;-74
2020/12/21 03:30:11;;;;;;;2.30;1.40;;;5.30;95.20;;;9.28;77.82;101982.28;5001796;28;97027;-73
2020/12/21 03:32:39;;;;;;;1.02;0.70;;;5.30;95.20;;;9.27;77.56;101983.34;4998445;27;96735;-73
2020/12/21 03:35:24;;;;;;;0.30;0.30;;;5.30;95.50;;;9.31;77.60;101986.31;4998529;28;96746;-73
2020/12/21 03:37:52;;;;;;;0.57;0.57;;;5.30;95.20;;;9.31;77.59;101987.09;5002607;28;97253;-73
2020/12/21 03:40:20;;;;;;;1.10;0.80;;;5.30;95.20;;;9.34;77.61;101983.09;4996735;28;96661;-73
2020/12/21 03:42:47;;;;;;;0.35;0.35;;;5.40;95.20;;;9.37;77.87;101983.38;4998896;28;97788;-73
2020/12/21 03:45:16;;;;;;;0.60;0.60;;;5.40;95.20;;;9.38;77.95;101982.28;5001065;28;97848;-73
2020/12/21 03:47:45;;;;;;;1.05;0.93;;;5.40;95.20;;;9.41;78.23;101983.66;4998210;28;96587;-73
2020/12/21 03:50:12;;;;;;;0.22;0.22;;;5.40;95.20;;;9.48;77.90;101979.69;5014648;28;96681;-73
2020/12/21 03:52:40;;;;;;;0.38;0.38;;;5.40;95.20;;;9.47;77.26;101974.56;4999263;28;97869;-74
2020/12/21 03:55:08;;;;;;;24.67;0.95;;;5.40;95.20;;;9.42;77.73;101969.22;4998418;28;97670;-74
2020/12/21 03:57:36;;;;;;;4.18;0.73;;;5.40;95.20;;;9.39;77.36;101967.84;5001117;28;96822;-73
2020/12/21 04:00:08;;;;;;;0.38;0.38;;;5.40;95.20;;;9.35;77.33;101972.13;5013401;28;96905;-73
2020/12/21 04:02:45;;;;;;;9.45;1.13;;;5.40;95.20;;;9.35;77.31;101968.66;4999605;27;97033;-73
2020/12/21 04:05:13;;;;;;;0.30;0.30;;;5.40;95.20;;;9.35;77.41;101963.31;5000877;28;97821;-73
2020/12/21 04:07:42;;;;;;;0.77;0.77;;;5.40;95.20;;;9.36;77.40;101970.28;5007364;28;96692;-73
2020/12/21 04:10:10;;;;;;;0.35;0.35;;;5.40;95.20;;;9.35;76.85;101966.00;5000332;28;96675;-73
2020/12/21 04:12:37;;;;;;;0.43;0.43;;;5.30;95.20;;;9.40;77.03;101971.34;4989008;28;97876;-73
2020/12/21 04:15:06;;;;;;;1.80;1.25;;;5.30;95.10;;;9.39;76.80;101964.41;4999994;28;97890;-73
2020/12/21 04:17:34;;;;;;;0.73;0.73;;;5.30;95.20;;;9.43;76.89;101963.59;4995376;28;96838;-73
2020/12/21 04:20:05;;;;;;;0.88;0.52;;;5.30;95.20;;;9.43;76.73;101960.13;4998378;28;96955;-73
2020/12/21 04:22:32;;;;;;;4.07;1.63;;;5.30;95.20;;;9.38;76.68;101962.78;4995121;28;97699;-73
2020/12/21 04:25:00;;;;;;;0.60;0.60;;;5.30;95.20;;;9.37;76.93;101955.84;5001171;28;97676;-73
2020/12/21 04:27:31;;;;;;;0.35;0.35;;;5.30;95.20;;;9.35;76.83;101949.94;4996161;28;96640;-73
2020/12/21 04:29:58;;;;;;;1.48;0.88;;;5.30;95.20;;;9.29;77.04;101957.13;4997476;28;96993;-74
2020/12/21 04:32:26;;;;;;;7.90;2.63;;;5.20;95.10;;;9.23;77.05;101951.25;4990483;28;96799;-73
2020/12/21 04:34:54;;;;;;;2.17;1.23;;;5.20;95.10;;;9.19;76.96;101955.50;4997124;28;97385;-73
2020/12/21 04:37:22;;;;;;;0.65;0.65;;;5.20;95.10;;;9.19;76.86;101952.84;4999423;28;96672;-74
2020/12/21 04:39:50;;;;;;;0.52;0.52;;;5.20;95.10;;;9.19;76.91;101958.19;4997570;28;97019;-74
2020/12/21 04:42:18;;;;;;;0.82;0.55;;;5.20;95.10;;;9.16;76.96;101964.03;4996744;28;96861;-73
2020/12/21 04:44:45;;;;;;;0.95;0.60;;;5.20;95.10;;;9.16;76.81;101961.34;4997094;28;96751;-73
2020/12/21 04:47:16;;;;;;;0.52;0.52;;;5.10;95.10;;;9.11;76.84;101951.47;4998420;28;96694;-73
2020/12/21 04:49:44;;;;;;;4.72;1.00;;;5.10;95.10;;;9.06;77.06;101950.63;4996781;28;96887;-73
2020/12/21 04:52:14;;;;;;;3.35;0.90;;;5.10;95.10;;;9.01;77.22;101953.28;4998387;28;96668;-74
2020/12/21 04:54:44;;;;;;;0.55;0.55;;;5.10;95.10;;;9.00;77.09;101959.72;4997932;28;98048;-73
2020/12/21 04:57:12;;;;;;;3.60;0.75;;;5.00;95.10;;;8.97;77.54;101957.56;4997886;28;96754;-73
2020/12/21 04:59:39;;;;;;;0.40;0.40;;;5.00;95.10;;;8.99;77.48;101964.22;4999186;28;97109;-74
2020/12/21 05:02:07;;;;;;;0.75;0.75;;;5.00;95.10;;;8.94;77.29;101964.22;4996302;28;98906;-74
2020/12/21 05:04:34;;;;;;;1.00;0.73;;;5.00;95.10;;;8.88;77.19;101959.91;4996399;28;97738;-74
2020/12/21 05:07:04;;;;;;;8.30;0.80;;;5.00;95.10;;;8.87;77.56;101958.31;4999554;28;96614;-74
2020/12/21 05:09:32;;;;;;;0.93;0.93;;;5.00;95.10;;;8.87;77.03;101950.28;4999677;28;96817;-74
2020/12/21 05:12:03;;;;;;;5.25;2.30;;;5.00;95.10;;;8.81;77.61;101955.88;4997062;28;97756;-74
2020/12/21 05:14:34;;;;;;;0.10;0.10;;;4.90;95.00;;;8.78;77.47;101954.53;4995430;28;96747;-73
2020/12/21 05:17:15;;;;;;;0.65;0.65;;;4.90;95.00;;;8.79;77.52;101947.31;5005071;28;97373;-73
2020/12/21 05:19:44;;;;;;;0.75;0.75;;;4.90;95.10;;;8.78;78.00;101943.84;4996615;28;96824;-73
2020/12/21 05:22:14;;;;;;;1.85;0.25;;;4.90;95.10;;;8.77;77.39;101947.59;4994460;28;96743;-73
2020/12/21 05:24:44;;;;;;;0.45;0.45;;;4.90;95.10;;;8.73;77.59;101945.69;4996569;27;96974;-73
2020/12/21 05:27:14;;;;;;;8.57;1.38;;;4.90;95.10;;;8.78;77.15;101948.38;4999574;27;96578;-73
2020/12/21 05:29:53;;;;;;;0.38;0.20;;;4.90;95.10;;;8.79;77.17;101945.47;4995504;28;96777;-73
2020/12/21 05:32:21;;;;;;;0.80;0.75;;;4.80;95.10;;;8.76;77.52;101940.63;4995904;28;97985;-74
2020/12/21 05:34:50;;;;;;;4.38;1.55;;;4.80;95.10;;;8.78;77.02;101945.69;4997009;28;97646;-74
2020/12/21 05:37:20;;;;;;;1.35;1.13;;;4.80;95.10;;;8.76;77.39;101945.97;5003601;28;96783;-73
2020/12/21 05:39:55;;;;;;;0.45;0.45;;;4.80;95.10;;;8.76;77.10;101939.81;4996696;28;96698;-73
2020/12/21 05:42:25;;;;;;;7.13;2.15;;;4.80;95.10;;;8.77;77.81;101938.75;5004901;28;96688;-73
2020/12/21 05:44:56;;;;;;;0.95;0.85;;;4.80;95.10;;;8.78;77.32;101943.03;4995807;28;98913;-73
2020/12/21 05:47:25;;;;;;;6.93;1.73;;;4.80;95.10;;;8.79;77.96;101937.44;4987423;28;96713;-73
2020/12/21 05:49:57;;;;;;;0.57;0.57;;;4.80;95.20;;;8.84;77.30;101941.97;5012067;28;97347;-73
2020/12/21 05:52:32;;;;;;;0.05;0.05;;;4.80;95.20;;;8.90;77.24;101941.75;4998319;28;96667;-73
2020/12/21 05:55:07;;;;;;;2.05;1.88;;;4.80;95.20;;;8.87;77.17;101939.59;5000589;28;96608;-73
2020/12/21 05:57:38;;;;;;;0.77;0.77;;;4.80;95.20;;;8.85;77.26;101941.75;5000754;28;96824;-73
2020/12/21 06:00:14;;;;;;;1.30;0.93;;;4.80;95.20;;;8.86;77.38;101939.88;4998288;28;97038;-73
2020/12/21 06:02:42;;;;;;;1.15;1.13;;;4.80;95.50;;;8.89;77.26;101937.47;4994763;28;97873;-73
2020/12/21 06:05:12;;;;;;;2.95;0.65;;;4.80;95.30;;;8.97;77.56;101930.84;5002138;28;97462;-73
2020/12/21 06:07:50;;;;;;;0.25;0.25;;;4.80;95.30;;;8.98;77.41;101927.88;4997681;28;96787;-73
2020/12/21 06:10:18;;;;;;;6.10;1.40;;;4.90;95.30;;;8.95;77.47;101920.38;4998724;28;96815;-73
2020/12/21 06:12:50;;;;;;;9.32;0.82;;;4.90;95.30;;;8.98;77.37;101916.41;4985620;28;97763;-73
2020/12/21 06:15:24;;;;;;;0.30;0.30;;;4.90;95.30;;;8.94;77.34;101910.75;5004543;28;97760;-73
2020/12/21 06:17:52;;;;;;;8.88;0.70;;;4.90;95.30;;;8.95;77.17;101916.94;4998066;28;96719;-73
2020/12/21 06:20:22;;;;;;;0.17;0.17;;;4.90;95.30;;;8.90;77.16;101914.25;4992747;28;97226;-73
2020/12/21 06:22:49;;;;;;;1.25;1.15;;;4.90;95.30;;;8.96;76.90;101905.16;5002299;28;97038;-73
2020/12/21 06:25:24;;;;;;;0.93;0.93;;;4.90;95.30;;;8.94;77.30;101908.09;4998300;28;97697;-73
2020/12/21 06:27:55;;;;;;;0.10;0.10;;;4.90;95.30;;;8.97;77.23;101901.44;5002391;28;96769;-73
2020/12/21 06:30:31;;;;;;;0.90;0.80;;;4.90;95.30;;;9.00;77.71;101907.03;4997865;28;96763;-73
2020/12/21 06:33:05;;;;;;;0.80;0.15;;;4.90;95.30;;;9.01;76.88;101911.34;5001507;28;97615;-73
2020/12/21 06:35:43;;;;;;;1.60;0.40;;;4.90;95.30;;;8.92;77.54;101914.78;4998208;28;96790;-73
2020/12/21 06:38:11;;;;;;;1.88;0.93;;;4.90;95.30;;;8.93;77.93;101911.81;5013008;28;96868;-73
2020/12/21 06:40:39;;;;;;;1.50;0.75;;;5.00;95.30;;;8.99;77.72;101910.00;5002603;27;97187;-73
2020/12/21 06:43:14;;;;;;;9.10;1.23;;;5.00;95.40;;;8.97;77.81;101918.25;4996529;28;97935;-73
2020/12/21 06:45:44;;;;;;;1.70;0.50;;;5.00;95.60;;;8.99;77.96;101918.78;4998286;28;96801;-73
2020/12/21 06:48:22;;;;;;;2.35;1.17;;;5.00;95.30;;;9.01;77.58;101913.19;4996431;28;96763;-73
2020/12/21 06:50:51;;;;;;;24.20;0.82;;;5.00;95.30;;;9.06;77.44;101908.69;4998199;28;97310;-73
2020/12/21 06:53:18;;;;;;;4.13;1.02;;;5.00;95.60;;;9.04;77.66;101905.47;5000685;28;97895;-73
2020/12/21 06:55:46;;;;;;;0.38;0.38;;;5.00;95.30;;;9.03;77.85;101903.03;4995840;28;97661;-73
2020/12/21 06:58:15;;;;;;;0.90;0.38;;;5.10;95.30;;;9.04;77.85;101902.78;4999804;28;96610;-73
2020/12/21 07:00:44;;;;;;;5.70;0.85;;;5.00;95.30;;;9.11;77.37;101914.03;5000147;28;96909;-73
2020/12/21 07:03:11;;;;;;;2.15;0.40;;;5.10;95.30;;;9.18;77.49;101919.16;4997092;28;96926;-73
2020/12/21 07:05:39;;;;;;;0.68;0.45;;;5.10;95.30;;;9.21;77.50;101907.91;4987401;28;96819;-73
2020/12/21 07:08:08;;;;;;;0.55;0.55;;;5.10;95.30;;;9.18;77.59;101909.25;5000859;28;96695;-73
2020/12/21 07:10:41;;;;;;;1.25;0.82;;;5.10;95.30;;;9.22;77.26;101914.88;4994407;28;96762;-73
2020/12/21 07:13:12;;;;;;;0.38;0.38;;;5.10;95.30;;;9.27;77.25;101901.50;4991013;27;98327;-73
2020/12/21 07:15:41;;;;;;;0.30;0.30;;;5.10;95.40;;;9.27;76.90;101913.00;4992346;28;97703;-73
2020/12/21 07:18:11;;;;;;;1.20;1.08;;;5.10;95.30;;;9.26;77.39;101910.59;4993553;28;97299;-73
2020/12/21 07:20:40;;;;;;;0.50;0.50;;;5.10;95.30;;;9.24;77.23;101910.06;4992570;28;96699;-73
2020/12/21 07:23:08;;;;;;;0.20;0.20;;;5.20;95.40;;;9.27;77.01;101910.31;5008047;28;97945;-73
2020/12/21 07:25:36;;;;;;;1.58;0.93;;;5.20;95.40;;;9.19;77.10;101908.16;4989549;28;97161;-73
2020/12/21 07:28:05;;;;;;;6.82;1.27;;;5.20;95.30;;;9.12;77.08;101904.94;4993589;27;96731;-73
2020/12/21 07:30:32;;;;;;;0.85;0.52;;;5.10;95.30;;;9.10;77.57;101912.44;4991956;28;96908;-73
2020/12/21 07:33:06;;;;;;;2.97;1.20;;;5.10;95.30;;;9.08;77.24;101911.06;5003368;28;97943;-73
2020/12/21 07:35:34;;;;;;;0.40;0.40;;;5.10;95.20;;;9.04;77.54;101902.78;4999553;28;97248;-73
2020/12/21 07:38:13;;;;;;;18.33;0.73;;;5.10;95.30;;;9.05;77.65;101904.41;5005521;28;96745;-73
2020/12/21 07:40:46;;;;;;;16.65;0.52;;;5.10;95.30;;;9.09;77.54;101910.00;4995409;28;96782;-73
2020/12/21 07:43:23;;;;;;;0.68;0.68;;;5.10;95.30;;;9.11;77.40;101908.69;5000713;28;96752;-73
2020/12/21 07:46:04;;;;;;;0.63;0.40;;;5.10;95.30;;;9.15;77.33;101901.75;4995212;28;97806;-73
2020/12/21 07:48:34;;;;;;;0.47;0.47;;;5.10;95.30;;;9.29;76.91;101900.16;5003115;28;98012;-73
2020/12/21 07:51:07;;;;;;;0.30;0.30;;;5.10;95.30;;;9.36;76.84;101896.16;4999155;28;96799;-74
2020/12/21 07:53:40;;;;;;;0.40;0.40;;;5.10;95.30;;;9.30;76.71;101896.41;4996429;28;98327;-73
2020/12/21 07:56:14;;;;;;;;;;;5.10;95.30;;;9.53;76.19;101901.28;4997780;28;97729;-73
2020/12/21 07:58:43;;;;;;;4.68;0.80;;;5.20;95.30;;;9.46;77.12;101892.72;4998020;28;96797;-73
2020/12/21 08:01:13;;;;;;;0.47;0.47;;;5.20;95.30;;;9.43;77.00;101899.38;5006183;28;96765;-74
2020/12/21 08:03:42;;;;;;;20.15;0.90;;;5.30;95.30;;;9.55;77.03;101901.81;5002048;28;98277;-73
2020/12/21 08:06:13;;;;;;;0.70;0.70;;;5.30;95.30;;;9.65;76.70;101909.88;4998715;27;96768;-73
2020/12/21 08:08:44;;;;;;;0.45;0.32;;;5.40;95.30;;;9.80;76.40;101901.81;4995253;28;96807;-73
2020/12/21 08:11:15;;;;;;;3.95;1.40;;;5.40;95.20;;;9.80;76.41;101896.47;4998908;28;96717;-74
2020/12/21 08:13:48;;;;;;;0.75;0.75;;;5.50;95.30;;;9.85;76.41;101899.97;4995039;28;97880;-73
2020/12/21 08:16:24;;;;;;;8.40;1.77;;;5.50;95.30;;;9.90;76.29;101896.47;4987441;28;97457;-73
2020/12/21 08:18:53;;;;;;;2.88;1.55;;;5.60;95.20;;;9.89;76.49;101886.81;4999321;28;96790;-73
2020/12/21 08:21:23;;;;;;;1.35;1.13;;;5.60;95.20;;;10.04;76.37;101889.53;5004679;28;97034;-73
2020/12/21 08:23:53;;;;;;;2.55;1.58;;;5.70;95.20;;;10.04;76.54;101881.50;4997125;28;97845;-72
2020/12/21 08:26:22;;;;;;;0.80;0.57;;;5.70;95.20;;;10.08;76.26;101877.22;4997268;28;97731;-73
2020/12/21 08:28:56;;;;;;;5.45;3.20;;;5.80;95.20;;;10.08;76.41;101874.53;4995786;28;96794;-74
2020/12/21 08:31:25;;;;;;;2.83;1.13;;;5.80;95.10;;;10.18;76.83;101869.16;4994416;28;97305;-74
2020/12/21 08:34:04;;;;;;;0.77;0.77;;;5.90;95.10;;;10.28;76.77;101871.81;4997468;28;96825;-74
2020/12/21 08:36:36;;;;;;;3.90;1.42;;;5.90;95.10;;;10.32;76.42;101873.66;4992987;28;97942;-74
2020/12/21 08:39:13;;;;;;;1.17;0.82;;;6.00;95.10;;;10.43;76.15;101875.25;4995445;28;96902;-74
2020/12/21 08:41:46;;;;;;;3.83;1.02;;;6.00;95.00;;;10.47;76.33;101862.91;4980797;28;96714;-74
2020/12/21 08:44:21;;;;;;;1.58;0.65;;;6.10;95.00;;;10.43;76.38;101867.22;5010699;28;97823;-74
2020/12/21 08:46:54;;;;;;;6.53;2.15;;;6.10;95.30;;;10.41;75.93;101861.34;4993056;28;97678;-74
2020/12/21 08:49:26;;;;;;;0.82;0.82;;;6.10;95.00;;;10.30;75.88;101851.72;5000584;28;96883;-74
2020/12/21 08:51:59;;;;;;;2.20;0.75;;;6.10;95.00;;;10.25;76.41;101845.59;4995783;28;96753;-74
2020/12/21 08:54:31;;;;;;;1.02;0.88;;;6.10;95.00;;;10.20;76.33;101846.41;4999616;28;96907;-74
2020/12/21 08:56:58;;;;;;;0.85;0.85;;;6.10;95.00;;;10.22;76.73;101848.81;4995725;28;97888;-73
2020/12/21 08:59:27;;;;;;;1.48;1.38;;;6.00;95.00;;;10.28;76.45;101845.03;4996965;28;96960;-74
2020/12/21 09:01:55;;;;;;;0.75;0.75;;;6.10;95.10;;;10.34;76.42;101852.75;4995740;28;96719;-74
2020/12/21 09:04:23;;;;;;;1.17;1.08;;;6.10;95.10;;;10.34;76.84;101849.31;5007003;28;97308;-74
2020/12/21 09:06:51;;;;;;;0.40;0.40;;;6.10;95.10;;;10.34;76.75;101852.75;5003730;28;97742;-74
2020/12/21 09:09:18;;;;;;;0.13;0.13;;;6.10;95.10;;;10.37;76.76;101848.75;4999433;28;97607;-74
2020/12/21 09:12:05;;;;;;;0.88;0.88;;;6.10;95.10;;;10.36;76.80;101844.47;4992431;28;97003;-73
2020/12/21 09:14:33;;;;;;;0.45;0.45;;;6.10;95.10;;;10.36;76.76;101842.59;4999568;28;98008;-74
2020/12/21 09:17:03;;;;;;;6.53;1.30;;;6.10;95.10;;;10.35;76.69;101840.19;4997052;28;96761;-73
2020/12/21 09:19:32;;;;;;;1.42;0.70;;;6.10;95.10;;;10.40;76.51;101829.44;4999618;28;96752;-73
2020/12/21 09:22:00;;;;;;;0.47;0.47;;;6.20;95.10;;;10.44;76.74;101822.47;4994485;28;96923;-74
2020/12/21 09:24:30;;;;;;;7.45;1.13;;;6.20;95.20;;;10.54;76.66;101833.16;4993978;28;97941;-73
2020/12/21 09:26:58;;;;;;;1.33;0.47;;;6.20;95.10;;;10.60;76.83;101832.84;4998255;28;97998;-73
2020/12/21 09:29:27;;;;;;;0.40;0.40;;;6.30;95.40;;;10.79;76.26;101831.16;4993545;28;97231;-73
2020/12/21 09:31:55;;;;;;;0.20;0.20;;;6.30;95.20;;;10.91;76.32;101824.38;4982874;28;96816;-73
2020/12/21 09:34:22;;;;;;;0.88;0.63;;;6.40;95.20;;;11.04;75.91;101829.13;5004126;28;97052;-75
2020/12/21 09:36:51;;;;;;;7.40;2.75;;;6.50;95.10;;;11.25;75.21;101830.59;4997504;28;97699;-73
2020/12/21 09:39:18;;;;;;;5.93;1.75;;;6.60;95.10;;;11.32;75.85;101833.75;4997305;28;96960;-73
2020/12/21 09:41:46;;;;;;;0.30;0.30;;;6.70;95.10;;;11.48;75.67;101837.94;4996379;28;96942;-73
2020/12/21 09:44:13;;;;;;;26.05;2.50;;;6.80;95.10;;;11.60;75.17;101832.25;4995594;28;98154;-74
2020/12/21 09:46:41;;;;;;;0.40;0.40;;;6.90;95.00;;;11.69;74.82;101839.38;5006023;28;98763;-74
2020/12/21 09:49:09;;;;;;;1.85;1.08;;;7.00;94.90;;;11.74;74.55;101839.38;4992814;28;96746;-74
2020/12/21 09:51:37;;;;;;;11.27;0.80;;;7.10;94.90;;;11.87;74.66;101829.84;5001895;27;96801;-74
2020/12/21 09:54:06;;;;;;;0.88;0.88;;;7.10;94.90;;;11.96;74.71;101830.84;5000283;28;96949;-74
2020/12/21 09:56:34;;;;;;;1.45;0.45;;;7.20;94.90;;;12.04;75.16;101814.91;5001444;28;97321;-75
2020/12/21 09:59:03;;;;;;;1.33;0.75;;;7.30;94.90;;;12.08;75.04;101813.25;5000760;28;96825;-75
2020/12/21 10:01:31;;;;;;;0.13;0.13;;;7.40;94.90;;;12.06;75.26;101815.41;4995787;28;96675;-74
2020/12/21 10:04:03;;;;;;;0.47;0.47;;;7.50;94.90;;;12.15;74.97;101810.19;4995495;28;98115;-75
2020/12/21 10:06:31;;;;;;;0.52;0.52;;;7.50;94.90;;;12.24;74.90;101795.84;4997962;28;97539;-74
2020/12/21 10:08:59;;;;;;;0.10;0.10;;;7.60;94.90;;;12.13;75.75;101780.94;4997913;27;96755;-75
2020/12/21 10:11:29;;;;;;;1.83;1.50;;;7.70;94.90;;;12.22;75.75;101768.47;4982519;28;96898;-75
2020/12/21 10:13:57;;;;;;;1.27;0.68;;;7.70;94.90;;;12.31;75.46;101769.47;4996821;28;96879;-75
2020/12/21 10:16:24;;;;;;;1.23;0.98;;;7.80;94.90;;;12.40;75.48;101756.16;5000680;28;98040;-75
2020/12/21 10:18:52;;;;;;;1.42;1.00;;;7.90;94.80;;;12.34;76.00;101757.31;4991807;28;97245;-74
2020/12/21 10:21:20;;;;;;;0.77;0.77;;;7.90;94.80;;;12.33;76.31;101753.84;4994619;28;96785;-74
2020/12/21 10:23:48;;;;;;;1.75;1.10;;;7.90;94.80;;;12.26;76.30;101749.91;4994000;28;98025;-74
2020/12/21 10:26:16;;;;;;;1.05;0.68;;;7.90;94.80;;;12.30;76.21;101754.38;4996666;28;96858;-75
2020/12/21 10:28:44;;;;;;;0.60;0.60;;;7.90;94.80;;;12.29;76.14;101746.63;4998232;28;96734;-74
2020/12/21 10:31:12;;;;;;;0.57;0.57;;;7.90;94.90;;;12.29;76.90;101754.69;4991365;28;96891;-74
2020/12/21 10:33:40;;;;;;;0.20;0.20;;;8.00;94.90;;;12.31;76.98;101747.97;5002565;28;96902;-75